createdAt,value
2023-04-23T00:02:16.458Z,6.10
2023-04-23T00:06:19.765Z,4.40
2023-04-23T00:10:22.820Z,5.53
2023-04-23T00:14:24.905Z,5.47
2023-04-23T00:18:26.782Z,4.90
2023-04-23T00:22:28.810Z,5.47
2023-04-23T00:26:30.814Z,7.05
2023-04-23T00:30:33.792Z,5.45
2023-04-23T00:34:35.955Z,5.75
2023-04-23T00:38:38.174Z,5.13
2023-04-23T00:42:40.651Z,5.63
2023-04-23T00:46:44.791Z,5.40
2023-04-23T00:50:46.864Z,7.03
2023-04-23T00:54:49.041Z,5.88
2023-04-23T00:58:52.628Z,6.05
2023-04-23T01:02:55.623Z,5.72
2023-04-23T01:06:59.124Z,7.30
2023-04-23T01:11:03.160Z,9.32
2023-04-23T01:15:06.246Z,6.97
2023-04-23T01:19:10.198Z,6.95
2023-04-23T01:23:13.035Z,5.85
2023-04-23T01:27:16.202Z,6.95
2023-04-23T01:31:18.765Z,12.55
2023-04-23T01:35:20.937Z,9.07
2023-04-23T01:39:23.040Z,7.50
2023-04-23T01:43:25.452Z,8.45
2023-04-23T01:47:27.401Z,4.07
2023-04-23T01:51:30.605Z,3.83
2023-04-23T01:55:37.961Z,5.80
2023-04-23T01:59:41.015Z,4.30
2023-04-23T02:03:44.418Z,6.63
2023-04-23T02:07:48.772Z,4.63
2023-04-23T02:11:51.269Z,3.03
2023-04-23T02:15:53.388Z,8.77
2023-04-23T02:19:58.362Z,6.13
2023-04-23T02:24:00.440Z,4.43
2023-04-23T02:28:06.294Z,5.28
2023-04-23T02:32:08.414Z,4.40
2023-04-23T02:36:11.751Z,4.30
2023-04-23T02:40:13.665Z,6.05
2023-04-23T02:44:15.651Z,6.28
2023-04-23T02:48:18.102Z,4.72
2023-04-23T02:52:20.519Z,6.45
2023-04-23T02:56:22.747Z,3.47
2023-04-23T03:00:26.415Z,5.60
2023-04-23T03:04:28.923Z,9.23
2023-04-23T03:08:30.996Z,3.28
2023-04-23T03:12:33.224Z,6.47
2023-04-23T03:16:36.076Z,6.30
2023-04-23T03:20:38.038Z,4.53
2023-04-23T03:24:40.459Z,3.80
2023-04-23T03:28:42.730Z,4.07
2023-04-23T03:32:44.977Z,3.97
2023-04-23T03:36:48.813Z,3.80
2023-04-23T03:40:51.458Z,6.80
2023-04-23T03:44:53.484Z,5.60
2023-04-23T03:48:55.999Z,4.22
2023-04-23T03:53:02.171Z,6.65
2023-04-23T03:57:24.106Z,6.25
2023-04-23T04:01:43.602Z,5.68
2023-04-23T04:05:45.596Z,7.18
2023-04-23T04:09:49.312Z,5.13
2023-04-23T04:13:51.417Z,7.70
2023-04-23T04:17:53.499Z,6.10
2023-04-23T04:21:55.490Z,5.18
2023-04-23T04:25:57.862Z,7.53
2023-04-23T04:30:01.699Z,6.95
2023-04-23T04:34:04.075Z,7.18
2023-04-23T04:38:06.101Z,5.50
2023-04-23T04:42:08.253Z,6.07
2023-04-23T04:46:11.795Z,5.93
2023-04-23T04:50:13.828Z,9.85
2023-04-23T04:54:15.940Z,6.65
2023-04-23T04:58:17.981Z,6.18
2023-04-23T05:02:22.041Z,5.80
2023-04-23T05:06:24.334Z,6.43
2023-04-23T05:10:26.871Z,6.75
2023-04-23T05:14:29.028Z,5.45
2023-04-23T05:18:31.104Z,7.18
2023-04-23T05:22:33.077Z,8.30
2023-04-23T05:26:35.414Z,6.07
2023-04-23T05:30:37.664Z,6.85
2023-04-23T05:34:40.444Z,8.50
2023-04-23T05:38:42.720Z,8.23
2023-04-23T05:42:44.762Z,5.88
2023-04-23T05:46:46.690Z,5.97
2023-04-23T05:50:49.732Z,5.00
2023-04-23T05:54:52.416Z,11.15
2023-04-23T05:58:54.527Z,7.10
2023-04-23T06:02:56.845Z,6.70
2023-04-23T06:06:59.036Z,7.95
2023-04-23T06:11:02.006Z,6.82
2023-04-23T06:15:04.742Z,7.30
2023-04-23T06:19:06.823Z,9.15
2023-04-23T06:23:08.926Z,7.53
2023-04-23T06:27:11.498Z,7.35
2023-04-23T06:31:19.357Z,5.80
2023-04-23T06:35:21.981Z,6.78
2023-04-23T06:39:23.953Z,8.50
2023-04-23T06:43:26.255Z,6.07
2023-04-23T06:47:49.913Z,5.93
2023-04-23T06:51:52.138Z,9.70
2023-04-23T06:55:54.321Z,9.10
2023-04-23T06:59:56.476Z,7.97
2023-04-23T07:04:03.530Z,8.23
2023-04-23T07:08:05.670Z,6.55
2023-04-23T07:12:07.981Z,7.88
2023-04-23T07:16:09.993Z,10.60
2023-04-23T07:20:12.252Z,7.95
2023-04-23T07:24:14.174Z,7.53
2023-04-23T07:28:16.313Z,7.72
2023-04-23T07:32:18.497Z,9.93
2023-04-23T07:36:20.729Z,6.93
2023-04-23T07:40:23.465Z,10.23
2023-04-23T07:44:25.718Z,8.52
2023-04-23T07:48:27.913Z,8.35
2023-04-23T07:52:29.994Z,11.07
2023-04-23T07:56:32.621Z,9.82
2023-04-23T08:00:35.856Z,9.55
2023-04-23T08:04:38.166Z,9.32
2023-04-23T08:08:40.903Z,7.70
2023-04-23T08:12:43.029Z,8.23
2023-04-23T08:16:45.458Z,8.60
2023-04-23T08:20:47.595Z,7.35
2023-04-23T08:24:49.660Z,8.60
2023-04-23T08:28:52.154Z,4.82
2023-04-23T08:32:54.592Z,5.13
2023-04-23T08:36:56.699Z,4.63
2023-04-23T08:40:59.651Z,4.28
2023-04-23T08:45:03.382Z,3.83
2023-04-23T08:49:09.138Z,4.20
2023-04-23T08:53:11.853Z,5.03
2023-04-23T08:57:16.500Z,6.30
2023-04-23T09:01:19.258Z,8.05
2023-04-23T09:05:21.692Z,3.45
2023-04-23T09:09:24.539Z,4.28
2023-04-23T09:13:26.656Z,5.47
2023-04-23T09:17:30.606Z,3.53
2023-04-23T09:21:33.478Z,5.00
2023-04-23T09:25:36.703Z,4.93
2023-04-23T09:29:39.006Z,3.13
2023-04-23T09:33:41.237Z,4.20
2023-04-23T09:37:50.455Z,2.83
2023-04-23T09:41:53.953Z,2.30
2023-04-23T09:45:56.407Z,3.03
2023-04-23T09:49:59.861Z,3.63
2023-04-23T09:54:03.775Z,3.15
2023-04-23T09:58:10.902Z,3.55
2023-04-23T10:02:13.350Z,6.90
2023-04-23T10:06:30.711Z,5.22
2023-04-23T10:10:50.250Z,3.45
2023-04-23T10:14:59.818Z,3.22
2023-04-23T10:19:03.126Z,2.78
2023-04-23T10:23:07.461Z,2.67
2023-04-23T10:27:24.860Z,3.72
2023-04-23T10:31:33.810Z,3.70
2023-04-23T10:35:36.361Z,4.20
2023-04-23T10:39:38.817Z,3.03
2023-04-23T10:43:41.347Z,2.83
2023-04-23T10:47:47.097Z,3.13
2023-04-23T10:56:11.025Z,2.65
2023-04-23T11:00:15.490Z,6.50
2023-04-23T11:04:25.010Z,5.63
2023-04-23T11:08:29.060Z,3.15
2023-04-23T11:12:33.011Z,2.20
2023-04-23T11:16:36.894Z,3.13
2023-04-23T11:20:40.404Z,3.20
2023-04-23T11:24:44.599Z,1.90
2023-04-23T11:28:48.777Z,1.48
2023-04-23T11:32:53.398Z,1.40
2023-04-23T11:36:57.614Z,2.53
2023-04-23T11:41:02.971Z,1.65
2023-04-23T11:45:05.391Z,3.88
2023-04-23T11:49:09.426Z,6.82
2023-04-23T11:53:12.401Z,4.47
2023-04-23T11:57:14.592Z,1.42
2023-04-23T12:01:16.685Z,1.70
2023-04-23T12:05:30.223Z,1.30
2023-04-23T12:09:32.313Z,3.75
2023-04-23T12:13:34.524Z,2.25
2023-04-23T12:17:36.522Z,1.40
2023-04-23T12:21:55.213Z,1.83
2023-04-23T12:25:57.450Z,2.15
2023-04-23T12:30:01.234Z,1.55
2023-04-23T12:34:08.290Z,1.00
2023-04-23T12:38:27.824Z,2.28
2023-04-23T12:42:29.991Z,1.33
2023-04-23T12:46:32.061Z,1.20
2023-04-23T12:50:34.261Z,1.90
2023-04-23T12:54:39.703Z,3.28
2023-04-23T12:58:42.560Z,1.73
2023-04-23T13:02:46.124Z,1.70
2023-04-23T13:06:49.287Z,1.30
2023-04-23T13:10:51.722Z,2.15
2023-04-23T13:14:56.834Z,3.75
2023-04-23T13:19:00.499Z,2.17
2023-04-23T13:23:03.251Z,1.63
2023-04-23T13:27:05.930Z,1.83
2023-04-23T13:31:09.272Z,2.63
2023-04-23T13:35:13.798Z,1.42
2023-04-23T13:39:18.148Z,3.22
2023-04-23T13:43:21.346Z,3.55
2023-04-23T13:47:24.589Z,3.58
2023-04-23T13:55:36.002Z,4.32
2023-04-23T13:59:38.958Z,3.45
2023-04-23T14:03:42.414Z,1.95
2023-04-23T14:07:46.253Z,5.78
2023-04-23T14:11:48.840Z,2.10
2023-04-23T14:15:51.008Z,2.08
2023-04-23T14:19:53.259Z,3.10
2023-04-23T14:24:07.973Z,3.30
2023-04-23T14:28:38.295Z,2.75
2023-04-23T14:32:40.480Z,2.45
2023-04-23T14:36:42.491Z,2.55
2023-04-23T14:40:44.657Z,2.97
2023-04-23T14:44:46.767Z,1.60
2023-04-23T14:48:50.935Z,2.30
2023-04-23T14:52:53.554Z,3.55
2023-04-23T14:56:55.684Z,1.70
2023-04-23T15:00:57.773Z,4.32
2023-04-23T15:05:00.012Z,3.78
2023-04-23T15:09:02.108Z,3.65
2023-04-23T15:13:04.228Z,4.30
2023-04-23T15:17:06.437Z,5.72
2023-04-23T15:21:08.590Z,2.50
2023-04-23T15:25:11.517Z,2.92
2023-04-23T15:29:14.104Z,1.30
2023-04-23T15:33:17.688Z,4.57
2023-04-23T15:37:21.202Z,2.50
2023-04-23T15:41:23.221Z,2.25
2023-04-23T15:45:25.363Z,4.13
2023-04-23T15:49:27.837Z,3.10
2023-04-23T15:53:30.046Z,2.13
2023-04-23T15:57:32.399Z,1.73
2023-04-23T16:01:35.077Z,3.15
2023-04-23T16:05:37.402Z,5.72
2023-04-23T16:09:41.048Z,2.45
2023-04-23T16:13:43.529Z,2.50
2023-04-23T16:17:46.636Z,4.40
2023-04-23T16:21:49.359Z,3.70
2023-04-23T16:25:51.549Z,3.58
2023-04-23T16:29:53.715Z,1.38
2023-04-23T16:33:56.483Z,3.15
2023-04-23T16:37:58.672Z,3.97
2023-04-23T16:42:00.698Z,2.03
2023-04-23T16:46:02.778Z,2.75
2023-04-23T16:50:05.665Z,2.63
2023-04-23T16:54:07.789Z,3.03
2023-04-23T16:58:10.314Z,2.35
2023-04-23T17:02:12.566Z,4.55
2023-04-23T17:06:26.361Z,2.08
2023-04-23T17:10:28.583Z,3.28
2023-04-23T17:14:30.544Z,2.88
2023-04-23T17:18:32.658Z,3.65
2023-04-23T17:22:35.036Z,5.72
2023-04-23T17:26:39.638Z,2.17
2023-04-23T17:30:41.871Z,2.78
2023-04-23T17:34:44.581Z,1.30
2023-04-23T17:38:47.538Z,2.35
2023-04-23T17:42:49.688Z,2.25
2023-04-23T17:46:53.478Z,3.35
2023-04-23T17:50:55.689Z,1.70
2023-04-23T17:54:57.844Z,4.43
2023-04-23T17:58:59.852Z,1.85
2023-04-23T18:03:02.739Z,4.32
2023-04-23T18:07:05.044Z,1.73
2023-04-23T18:11:07.943Z,3.30
2023-04-23T18:15:12.372Z,3.45
2023-04-23T18:19:14.591Z,3.35
2023-04-23T18:23:18.110Z,4.57
2023-04-23T18:27:20.276Z,5.72
2023-04-23T18:31:23.425Z,2.08
2023-04-23T18:35:25.641Z,2.33
2023-04-23T18:39:30.581Z,1.98
2023-04-23T18:43:34.559Z,3.25
2023-04-23T18:47:48.847Z,1.92
2023-04-23T18:51:51.880Z,3.75
2023-04-23T18:55:54.049Z,3.03
2023-04-23T18:59:56.089Z,3.03
2023-04-23T19:03:58.963Z,2.95
2023-04-23T19:08:03.392Z,2.95
2023-04-23T19:12:05.723Z,3.45
2023-04-23T19:16:09.777Z,3.38
2023-04-23T19:20:17.379Z,2.13
2023-04-23T19:24:19.569Z,3.97
2023-04-23T19:28:21.562Z,4.13
2023-04-23T19:32:23.738Z,4.28
2023-04-23T19:36:26.447Z,4.13
2023-04-23T19:40:28.753Z,1.70
2023-04-23T19:44:31.202Z,3.10
2023-04-23T19:48:33.379Z,2.15
2023-04-23T19:52:36.252Z,6.22
2023-04-23T19:56:38.457Z,4.80
2023-04-23T20:00:41.850Z,3.05
2023-04-23T20:04:45.599Z,2.97
2023-04-23T20:09:06.333Z,2.00
2023-04-23T20:13:08.438Z,1.55
2023-04-23T20:17:10.765Z,3.08
2023-04-23T20:21:12.945Z,2.15
2023-04-23T20:25:15.326Z,2.80
2023-04-23T20:29:17.475Z,1.58
2023-04-23T20:33:19.974Z,3.75
2023-04-23T20:37:22.028Z,1.92
2023-04-23T20:41:31.323Z,2.22
2023-04-23T20:45:34.588Z,1.88
2023-04-23T20:49:36.842Z,2.67
2023-04-23T20:53:38.904Z,1.98
2023-04-23T20:57:41.446Z,3.13
2023-04-23T21:01:43.497Z,3.92
2023-04-23T21:05:45.857Z,3.72
2023-04-23T21:09:48.055Z,3.35
2023-04-23T21:13:50.265Z,5.47
2023-04-23T21:17:52.296Z,4.03
2023-04-23T21:21:54.453Z,2.75
2023-04-23T21:25:57.201Z,3.08
2023-04-23T21:30:08.679Z,3.78
2023-04-23T21:34:10.894Z,3.05
2023-04-23T21:38:13.099Z,3.63
2023-04-23T21:42:15.081Z,2.05
2023-04-23T21:46:17.222Z,1.75
2023-04-23T21:50:19.397Z,2.58
2023-04-23T21:54:21.816Z,1.00
2023-04-23T21:58:24.028Z,2.63
2023-04-23T22:02:27.219Z,1.00
2023-04-23T22:06:29.946Z,1.10
2023-04-23T22:10:32.320Z,1.10
2023-04-23T22:14:34.314Z,5.07
2023-04-23T22:18:36.703Z,3.05
2023-04-23T22:22:41.085Z,2.38
2023-04-23T22:26:43.266Z,1.23
2023-04-23T22:30:45.359Z,0.90
2023-04-23T22:34:47.465Z,2.70
2023-04-23T22:38:49.518Z,1.48
2023-04-23T22:42:51.309Z,2.40
2023-04-23T22:46:53.404Z,1.88
2023-04-23T22:50:55.701Z,2.25
2023-04-23T22:54:57.979Z,1.40
2023-04-23T22:59:00.072Z,1.10
2023-04-23T23:03:02.361Z,1.60
2023-04-23T23:07:05.885Z,1.73
2023-04-23T23:11:07.886Z,2.10
2023-04-23T23:15:10.352Z,1.40
2023-04-23T23:19:13.250Z,1.52
2023-04-23T23:23:15.337Z,1.20
2023-04-23T23:27:17.473Z,1.95
2023-04-23T23:31:20.152Z,1.17
2023-04-23T23:35:22.058Z,1.90
2023-04-23T23:39:24.218Z,1.08
2023-04-23T23:43:26.416Z,1.25
2023-04-23T23:47:28.433Z,1.13
2023-04-23T23:51:30.657Z,2.33
2023-04-23T23:55:32.871Z,0.90
2023-04-23T23:59:35.003Z,1.30
